sensor_id;sensor_type;location;lat;lon;timestamp;pressure;altitude;pressure_sealevel;temperature
67758;BMP180;54562;47.620;18.786;2023-03-31T00:00:58;98117.20;;;9.66
67758;BMP180;54562;47.620;18.786;2023-03-31T00:04:07;98115.80;;;9.70
67758;BMP180;54562;47.620;18.786;2023-03-31T00:07:17;98112.00;;;9.70
67758;BMP180;54562;47.620;18.786;2023-03-31T00:10:27;98114.20;;;9.70
67758;BMP180;54562;47.620;18.786;2023-03-31T00:13:38;98103.00;;;9.70
67758;BMP180;54562;47.620;18.786;2023-03-31T00:16:47;98110.40;;;9.70
67758;BMP180;54562;47.620;18.786;2023-03-31T00:19:56;98105.40;;;9.68
67758;BMP180;54562;47.620;18.786;2023-03-31T00:23:06;98103.40;;;9.60
67758;BMP180;54562;47.620;18.786;2023-03-31T00:26:17;98101.00;;;9.60
67758;BMP180;54562;47.620;18.786;2023-03-31T00:29:25;98098.20;;;9.60
67758;BMP180;54562;47.620;18.786;2023-03-31T00:32:33;98103.40;;;9.60
67758;BMP180;54562;47.620;18.786;2023-03-31T00:35:42;98095.00;;;9.50
67758;BMP180;54562;47.620;18.786;2023-03-31T00:38:52;98097.00;;;9.50
67758;BMP180;54562;47.620;18.786;2023-03-31T00:42:02;98094.00;;;9.50
67758;BMP180;54562;47.620;18.786;2023-03-31T00:45:29;98092.80;;;9.50
67758;BMP180;54562;47.620;18.786;2023-03-31T00:48:38;98084.80;;;9.50
67758;BMP180;54562;47.620;18.786;2023-03-31T00:51:49;98080.40;;;9.50
67758;BMP180;54562;47.620;18.786;2023-03-31T00:55:05;98074.60;;;9.50
67758;BMP180;54562;47.620;18.786;2023-03-31T00:58:18;98076.60;;;9.50
67758;BMP180;54562;47.620;18.786;2023-03-31T01:01:28;98077.80;;;9.50
67758;BMP180;54562;47.620;18.786;2023-03-31T01:04:42;98073.20;;;9.50
67758;BMP180;54562;47.620;18.786;2023-03-31T01:07:54;98075.00;;;9.40
67758;BMP180;54562;47.620;18.786;2023-03-31T01:11:06;98074.20;;;9.40
67758;BMP180;54562;47.620;18.786;2023-03-31T01:14:17;98075.80;;;9.40
67758;BMP180;54562;47.620;18.786;2023-03-31T01:17:26;98078.20;;;9.34
67758;BMP180;54562;47.620;18.786;2023-03-31T01:21:02;98070.00;;;9.30
67758;BMP180;54562;47.620;18.786;2023-03-31T01:24:59;98079.60;;;9.22
67758;BMP180;54562;47.620;18.786;2023-03-31T01:28:24;98076.60;;;9.20
67758;BMP180;54562;47.620;18.786;2023-03-31T01:32:13;98078.20;;;9.20
67758;BMP180;54562;47.620;18.786;2023-03-31T01:43:51;98073.80;;;9.00
67758;BMP180;54562;47.620;18.786;2023-03-31T01:47:12;98075.60;;;9.00
67758;BMP180;54562;47.620;18.786;2023-03-31T01:50:29;98075.20;;;8.96
67758;BMP180;54562;47.620;18.786;2023-03-31T01:53:49;98078.40;;;8.90
67758;BMP180;54562;47.620;18.786;2023-03-31T01:56:59;98071.00;;;8.90
67758;BMP180;54562;47.620;18.786;2023-03-31T02:00:14;98072.80;;;8.80
67758;BMP180;54562;47.620;18.786;2023-03-31T02:03:29;98077.80;;;8.80
67758;BMP180;54562;47.620;18.786;2023-03-31T02:06:44;98060.20;;;8.70
67758;BMP180;54562;47.620;18.786;2023-03-31T02:10:01;98065.20;;;8.70
67758;BMP180;54562;47.620;18.786;2023-03-31T02:13:13;98063.60;;;8.60
67758;BMP180;54562;47.620;18.786;2023-03-31T02:16:26;98067.80;;;8.60
67758;BMP180;54562;47.620;18.786;2023-03-31T02:19:39;98064.80;;;8.52
67758;BMP180;54562;47.620;18.786;2023-03-31T02:22:53;98063.40;;;8.50
67758;BMP180;54562;47.620;18.786;2023-03-31T02:26:08;98060.60;;;8.40
67758;BMP180;54562;47.620;18.786;2023-03-31T02:29:18;98061.60;;;8.40
67758;BMP180;54562;47.620;18.786;2023-03-31T02:32:31;98063.40;;;8.30
67758;BMP180;54562;47.620;18.786;2023-03-31T02:35:42;98050.40;;;8.30
67758;BMP180;54562;47.620;18.786;2023-03-31T02:38:58;98049.00;;;8.20
67758;BMP180;54562;47.620;18.786;2023-03-31T02:42:07;98043.40;;;8.20
67758;BMP180;54562;47.620;18.786;2023-03-31T02:45:42;98039.60;;;8.10
67758;BMP180;54562;47.620;18.786;2023-03-31T02:48:55;98039.60;;;8.00
67758;BMP180;54562;47.620;18.786;2023-03-31T02:52:50;98047.00;;;8.00
67758;BMP180;54562;47.620;18.786;2023-03-31T02:56:21;98033.20;;;7.90
67758;BMP180;54562;47.620;18.786;2023-03-31T02:59:46;98032.20;;;7.88
67758;BMP180;54562;47.620;18.786;2023-03-31T03:03:15;98037.20;;;7.80
67758;BMP180;54562;47.620;18.786;2023-03-31T03:06:38;98034.20;;;7.80
67758;BMP180;54562;47.620;18.786;2023-03-31T03:09:59;98026.60;;;7.70
67758;BMP180;54562;47.620;18.786;2023-03-31T03:13:18;98030.40;;;7.70
67758;BMP180;54562;47.620;18.786;2023-03-31T03:16:32;98019.40;;;7.70
67758;BMP180;54562;47.620;18.786;2023-03-31T03:19:49;98016.80;;;7.70
67758;BMP180;54562;47.620;18.786;2023-03-31T03:22:58;98020.60;;;7.60
67758;BMP180;54562;47.620;18.786;2023-03-31T03:26:06;98022.00;;;7.60
67758;BMP180;54562;47.620;18.786;2023-03-31T03:29:14;98024.60;;;7.60
67758;BMP180;54562;47.620;18.786;2023-03-31T03:32:23;98027.40;;;7.60
67758;BMP180;54562;47.620;18.786;2023-03-31T03:35:31;98029.40;;;7.60
67758;BMP180;54562;47.620;18.786;2023-03-31T03:38:40;98022.40;;;7.60
67758;BMP180;54562;47.620;18.786;2023-03-31T03:41:47;98019.00;;;7.60
67758;BMP180;54562;47.620;18.786;2023-03-31T03:44:56;98011.40;;;7.60
67758;BMP180;54562;47.620;18.786;2023-03-31T03:48:04;98027.00;;;7.60
67758;BMP180;54562;47.620;18.786;2023-03-31T03:51:12;98022.40;;;7.60
67758;BMP180;54562;47.620;18.786;2023-03-31T03:54:20;98015.00;;;7.52
67758;BMP180;54562;47.620;18.786;2023-03-31T03:57:28;98019.40;;;7.50
67758;BMP180;54562;47.620;18.786;2023-03-31T04:00:36;98011.00;;;7.50
67758;BMP180;54562;47.620;18.786;2023-03-31T04:03:44;98015.60;;;7.40
67758;BMP180;54562;47.620;18.786;2023-03-31T04:06:53;98012.60;;;7.40
67758;BMP180;54562;47.620;18.786;2023-03-31T04:10:00;98008.80;;;7.40
67758;BMP180;54562;47.620;18.786;2023-03-31T04:13:08;98002.20;;;7.42
67758;BMP180;54562;47.620;18.786;2023-03-31T04:16:17;97996.80;;;7.46
67758;BMP180;54562;47.620;18.786;2023-03-31T04:19:25;98004.80;;;7.50
67758;BMP180;54562;47.620;18.786;2023-03-31T04:22:33;98002.00;;;7.48
67758;BMP180;54562;47.620;18.786;2023-03-31T04:25:46;98004.60;;;7.46
67758;BMP180;54562;47.620;18.786;2023-03-31T04:28:55;98006.80;;;7.40
67758;BMP180;54562;47.620;18.786;2023-03-31T04:32:06;98006.40;;;7.40
67758;BMP180;54562;47.620;18.786;2023-03-31T04:35:14;98006.40;;;7.36
67758;BMP180;54562;47.620;18.786;2023-03-31T04:38:24;98004.60;;;7.30
67758;BMP180;54562;47.620;18.786;2023-03-31T04:41:39;98000.20;;;7.30
67758;BMP180;54562;47.620;18.786;2023-03-31T04:44:46;98001.00;;;7.30
67758;BMP180;54562;47.620;18.786;2023-03-31T04:47:55;97994.80;;;7.30
67758;BMP180;54562;47.620;18.786;2023-03-31T04:51:03;97989.60;;;7.26
67758;BMP180;54562;47.620;18.786;2023-03-31T04:54:12;97994.40;;;7.20
67758;BMP180;54562;47.620;18.786;2023-03-31T04:57:20;97988.00;;;7.20
67758;BMP180;54562;47.620;18.786;2023-03-31T05:00:28;97985.20;;;7.20
67758;BMP180;54562;47.620;18.786;2023-03-31T05:03:36;97985.80;;;7.20
67758;BMP180;54562;47.620;18.786;2023-03-31T05:06:44;97983.00;;;7.20
67758;BMP180;54562;47.620;18.786;2023-03-31T05:09:53;97977.80;;;7.20
67758;BMP180;54562;47.620;18.786;2023-03-31T05:13:01;97978.40;;;7.30
67758;BMP180;54562;47.620;18.786;2023-03-31T05:16:13;97977.00;;;7.34
67758;BMP180;54562;47.620;18.786;2023-03-31T05:19:24;97983.00;;;7.50
67758;BMP180;54562;47.620;18.786;2023-03-31T05:22:34;97982.80;;;7.70
67758;BMP180;54562;47.620;18.786;2023-03-31T05:25:43;97976.60;;;7.90
67758;BMP180;54562;47.620;18.786;2023-03-31T05:28:51;97978.00;;;8.10
67758;BMP180;54562;47.620;18.786;2023-03-31T05:32:00;97973.20;;;8.30
67758;BMP180;54562;47.620;18.786;2023-03-31T05:35:10;97969.80;;;8.44
67758;BMP180;54562;47.620;18.786;2023-03-31T05:38:18;97970.00;;;8.60
67758;BMP180;54562;47.620;18.786;2023-03-31T05:41:26;97968.60;;;8.80
67758;BMP180;54562;47.620;18.786;2023-03-31T05:44:35;97972.20;;;8.98
67758;BMP180;54562;47.620;18.786;2023-03-31T05:47:42;97971.00;;;9.10
67758;BMP180;54562;47.620;18.786;2023-03-31T05:50:51;97961.40;;;9.30
67758;BMP180;54562;47.620;18.786;2023-03-31T05:53:59;97969.20;;;9.32
67758;BMP180;54562;47.620;18.786;2023-03-31T05:57:07;97963.00;;;9.40
67758;BMP180;54562;47.620;18.786;2023-03-31T06:00:18;97969.20;;;9.40
67758;BMP180;54562;47.620;18.786;2023-03-31T06:03:27;97963.00;;;9.40
67758;BMP180;54562;47.620;18.786;2023-03-31T06:06:35;97968.40;;;9.40
67758;BMP180;54562;47.620;18.786;2023-03-31T06:09:43;97964.00;;;9.40
67758;BMP180;54562;47.620;18.786;2023-03-31T06:12:51;97958.40;;;9.48
67758;BMP180;54562;47.620;18.786;2023-03-31T06:16:00;97957.20;;;9.50
67758;BMP180;54562;47.620;18.786;2023-03-31T06:19:08;97957.80;;;9.50
67758;BMP180;54562;47.620;18.786;2023-03-31T06:22:17;97958.60;;;9.60
67758;BMP180;54562;47.620;18.786;2023-03-31T06:25:25;97956.00;;;9.70
67758;BMP180;54562;47.620;18.786;2023-03-31T06:28:40;97960.00;;;9.80
67758;BMP180;54562;47.620;18.786;2023-03-31T06:31:48;97959.40;;;9.94
67758;BMP180;54562;47.620;18.786;2023-03-31T06:34:57;97961.20;;;10.10
67758;BMP180;54562;47.620;18.786;2023-03-31T06:38:05;97956.20;;;10.30
67758;BMP180;54562;47.620;18.786;2023-03-31T06:41:15;97960.00;;;10.40
67758;BMP180;54562;47.620;18.786;2023-03-31T06:44:23;97955.40;;;10.46
67758;BMP180;54562;47.620;18.786;2023-03-31T06:47:32;97962.40;;;10.50
67758;BMP180;54562;47.620;18.786;2023-03-31T06:50:41;97962.20;;;10.60
67758;BMP180;54562;47.620;18.786;2023-03-31T06:53:52;97965.80;;;10.80
67758;BMP180;54562;47.620;18.786;2023-03-31T06:57:00;97963.00;;;11.00
67758;BMP180;54562;47.620;18.786;2023-03-31T07:00:11;97960.60;;;11.20
67758;BMP180;54562;47.620;18.786;2023-03-31T07:03:19;97961.60;;;11.32
67758;BMP180;54562;47.620;18.786;2023-03-31T07:06:32;97957.80;;;11.50
67758;BMP180;54562;47.620;18.786;2023-03-31T07:09:40;97950.00;;;11.68
67758;BMP180;54562;47.620;18.786;2023-03-31T07:12:48;97941.80;;;11.80
67758;BMP180;54562;47.620;18.786;2023-03-31T07:15:57;97943.20;;;11.90
67758;BMP180;54562;47.620;18.786;2023-03-31T07:19:07;97940.40;;;12.00
67758;BMP180;54562;47.620;18.786;2023-03-31T07:22:16;97938.20;;;12.02
67758;BMP180;54562;47.620;18.786;2023-03-31T07:25:25;97937.60;;;12.16
67758;BMP180;54562;47.620;18.786;2023-03-31T07:28:34;97936.60;;;12.20
67758;BMP180;54562;47.620;18.786;2023-03-31T07:31:42;97935.00;;;12.30
67758;BMP180;54562;47.620;18.786;2023-03-31T07:34:49;97931.40;;;12.40
67758;BMP180;54562;47.620;18.786;2023-03-31T07:37:58;97933.40;;;12.50
67758;BMP180;54562;47.620;18.786;2023-03-31T07:41:08;97929.00;;;12.60
67758;BMP180;54562;47.620;18.786;2023-03-31T07:44:15;97922.60;;;12.70
67758;BMP180;54562;47.620;18.786;2023-03-31T07:47:24;97925.00;;;12.80
67758;BMP180;54562;47.620;18.786;2023-03-31T07:50:32;97933.00;;;12.80
67758;BMP180;54562;47.620;18.786;2023-03-31T07:53:41;97931.60;;;12.80
67758;BMP180;54562;47.620;18.786;2023-03-31T07:56:49;97925.80;;;12.80
67758;BMP180;54562;47.620;18.786;2023-03-31T07:59:57;97923.00;;;12.80
67758;BMP180;54562;47.620;18.786;2023-03-31T08:03:06;97915.80;;;12.90
67758;BMP180;54562;47.620;18.786;2023-03-31T08:06:18;97907.40;;;12.90
67758;BMP180;54562;47.620;18.786;2023-03-31T08:09:27;97902.00;;;13.00
67758;BMP180;54562;47.620;18.786;2023-03-31T08:12:35;97891.40;;;13.00
67758;BMP180;54562;47.620;18.786;2023-03-31T08:15:43;97885.60;;;13.00
67758;BMP180;54562;47.620;18.786;2023-03-31T08:18:52;97882.20;;;13.10
67758;BMP180;54562;47.620;18.786;2023-03-31T08:22:01;97876.80;;;13.30
67758;BMP180;54562;47.620;18.786;2023-03-31T08:25:11;97874.60;;;13.42
67758;BMP180;54562;47.620;18.786;2023-03-31T08:28:19;97877.00;;;13.60
67758;BMP180;54562;47.620;18.786;2023-03-31T08:31:27;97867.20;;;13.76
67758;BMP180;54562;47.620;18.786;2023-03-31T08:34:36;97858.60;;;13.90
67758;BMP180;54562;47.620;18.786;2023-03-31T08:37:48;97858.60;;;14.00
67758;BMP180;54562;47.620;18.786;2023-03-31T08:41:02;97854.20;;;14.10
67758;BMP180;54562;47.620;18.786;2023-03-31T08:44:15;97844.80;;;14.24
67758;BMP180;54562;47.620;18.786;2023-03-31T08:47:28;97846.40;;;14.34
67758;BMP180;54562;47.620;18.786;2023-03-31T08:50:51;97838.40;;;14.40
67758;BMP180;54562;47.620;18.786;2023-03-31T08:54:04;97836.80;;;14.58
67758;BMP180;54562;47.620;18.786;2023-03-31T08:57:19;97833.80;;;14.60
67758;BMP180;54562;47.620;18.786;2023-03-31T09:00:40;97831.80;;;14.70
67758;BMP180;54562;47.620;18.786;2023-03-31T09:04:11;97824.00;;;14.80
67758;BMP180;54562;47.620;18.786;2023-03-31T09:07:32;97815.60;;;14.90
67758;BMP180;54562;47.620;18.786;2023-03-31T09:10:52;97811.00;;;15.00
67758;BMP180;54562;47.620;18.786;2023-03-31T09:14:18;97798.60;;;15.10
67758;BMP180;54562;47.620;18.786;2023-03-31T09:17:31;97802.00;;;15.20
67758;BMP180;54562;47.620;18.786;2023-03-31T09:20:45;97799.20;;;15.30
67758;BMP180;54562;47.620;18.786;2023-03-31T09:24:02;97793.80;;;15.40
67758;BMP180;54562;47.620;18.786;2023-03-31T09:27:15;97800.20;;;15.42
67758;BMP180;54562;47.620;18.786;2023-03-31T09:30:28;97797.40;;;15.60
67758;BMP180;54562;47.620;18.786;2023-03-31T09:33:43;97792.00;;;15.70
67758;BMP180;54562;47.620;18.786;2023-03-31T09:36:51;97786.00;;;15.80
67758;BMP180;54562;47.620;18.786;2023-03-31T09:40:03;97773.20;;;15.90
67758;BMP180;54562;47.620;18.786;2023-03-31T09:43:21;97765.40;;;16.10
67758;BMP180;54562;47.620;18.786;2023-03-31T09:46:35;97762.80;;;16.20
67758;BMP180;54562;47.620;18.786;2023-03-31T09:49:45;97752.00;;;16.40
67758;BMP180;54562;47.620;18.786;2023-03-31T09:53:01;97750.00;;;16.50
67758;BMP180;54562;47.620;18.786;2023-03-31T09:56:11;97747.80;;;16.60
67758;BMP180;54562;47.620;18.786;2023-03-31T09:59:22;97742.40;;;16.80
67758;BMP180;54562;47.620;18.786;2023-03-31T10:02:38;97732.60;;;17.00
67758;BMP180;54562;47.620;18.786;2023-03-31T10:05:55;97733.20;;;17.20
67758;BMP180;54562;47.620;18.786;2023-03-31T10:09:08;97728.20;;;17.20
67758;BMP180;54562;47.620;18.786;2023-03-31T10:12:21;97714.60;;;17.10
67758;BMP180;54562;47.620;18.786;2023-03-31T10:15:30;97711.80;;;17.06
67758;BMP180;54562;47.620;18.786;2023-03-31T10:18:47;97705.80;;;17.10
67758;BMP180;54562;47.620;18.786;2023-03-31T10:22:02;97693.00;;;17.10
67758;BMP180;54562;47.620;18.786;2023-03-31T10:25:17;97701.00;;;17.14
67758;BMP180;54562;47.620;18.786;2023-03-31T10:28:29;97690.60;;;17.00
67758;BMP180;54562;47.620;18.786;2023-03-31T10:31:40;97695.60;;;17.00
67758;BMP180;54562;47.620;18.786;2023-03-31T10:34:49;97692.80;;;17.00
67758;BMP180;54562;47.620;18.786;2023-03-31T10:38:03;97698.00;;;17.20
67758;BMP180;54562;47.620;18.786;2023-03-31T10:41:12;97688.00;;;17.40
67758;BMP180;54562;47.620;18.786;2023-03-31T10:44:38;97691.20;;;17.60
67758;BMP180;54562;47.620;18.786;2023-03-31T10:47:54;97682.80;;;17.80
67758;BMP180;54562;47.620;18.786;2023-03-31T10:51:14;97675.40;;;17.92
67758;BMP180;54562;47.620;18.786;2023-03-31T10:54:22;97667.20;;;18.16
67758;BMP180;54562;47.620;18.786;2023-03-31T10:57:41;97664.60;;;18.20
67758;BMP180;54562;47.620;18.786;2023-03-31T11:01:05;97666.40;;;18.40
67758;BMP180;54562;47.620;18.786;2023-03-31T11:04:42;97663.00;;;18.50
67758;BMP180;54562;47.620;18.786;2023-03-31T11:08:04;97662.60;;;18.70
67758;BMP180;54562;47.620;18.786;2023-03-31T11:11:36;97651.40;;;18.60
67758;BMP180;54562;47.620;18.786;2023-03-31T11:15:03;97639.80;;;18.60
67758;BMP180;54562;47.620;18.786;2023-03-31T11:18:34;97648.40;;;18.50
67758;BMP180;54562;47.620;18.786;2023-03-31T11:21:59;97628.00;;;18.28
67758;BMP180;54562;47.620;18.786;2023-03-31T11:25:22;97619.80;;;18.04
67758;BMP180;54562;47.620;18.786;2023-03-31T11:28:56;97600.80;;;17.90
67758;BMP180;54562;47.620;18.786;2023-03-31T11:32:28;97597.40;;;17.70
67758;BMP180;54562;47.620;18.786;2023-03-31T11:35:53;97578.20;;;17.68
67758;BMP180;54562;47.620;18.786;2023-03-31T11:39:26;97570.20;;;17.70
67758;BMP180;54562;47.620;18.786;2023-03-31T11:42:44;97570.60;;;17.80
67758;BMP180;54562;47.620;18.786;2023-03-31T11:46:00;97569.20;;;17.90
67758;BMP180;54562;47.620;18.786;2023-03-31T11:49:18;97565.40;;;17.80
67758;BMP180;54562;47.620;18.786;2023-03-31T11:52:33;97561.00;;;17.80
67758;BMP180;54562;47.620;18.786;2023-03-31T11:55:43;97556.40;;;17.80
67758;BMP180;54562;47.620;18.786;2023-03-31T11:58:59;97547.00;;;17.80
67758;BMP180;54562;47.620;18.786;2023-03-31T12:02:17;97540.40;;;17.70
67758;BMP180;54562;47.620;18.786;2023-03-31T12:05:32;97536.80;;;17.80
67758;BMP180;54562;47.620;18.786;2023-03-31T12:08:45;97529.00;;;17.90
67758;BMP180;54562;47.620;18.786;2023-03-31T12:11:58;97520.60;;;18.00
67758;BMP180;54562;47.620;18.786;2023-03-31T12:15:20;97516.00;;;18.18
67758;BMP180;54562;47.620;18.786;2023-03-31T12:18:35;97513.60;;;18.22
67758;BMP180;54562;47.620;18.786;2023-03-31T12:21:52;97508.60;;;18.30
67758;BMP180;54562;47.620;18.786;2023-03-31T12:25:02;97513.20;;;18.50
67758;BMP180;54562;47.620;18.786;2023-03-31T12:28:11;97515.00;;;18.70
67758;BMP180;54562;47.620;18.786;2023-03-31T12:31:24;97505.00;;;18.70
67758;BMP180;54562;47.620;18.786;2023-03-31T12:34:38;97506.80;;;18.74
67758;BMP180;54562;47.620;18.786;2023-03-31T12:38:29;97505.60;;;18.80
67758;BMP180;54562;47.620;18.786;2023-03-31T12:42:00;97495.40;;;18.90
67758;BMP180;54562;47.620;18.786;2023-03-31T12:45:22;97488.60;;;18.70
67758;BMP180;54562;47.620;18.786;2023-03-31T12:48:48;97471.80;;;18.60
67758;BMP180;54562;47.620;18.786;2023-03-31T12:52:04;97460.80;;;18.60
67758;BMP180;54562;47.620;18.786;2023-03-31T12:55:37;97463.40;;;18.62
67758;BMP180;54562;47.620;18.786;2023-03-31T12:58:48;97445.80;;;18.70
67758;BMP180;54562;47.620;18.786;2023-03-31T13:02:26;97448.60;;;18.70
67758;BMP180;54562;47.620;18.786;2023-03-31T13:05:49;97454.20;;;18.50
67758;BMP180;54562;47.620;18.786;2023-03-31T13:08:58;97433.80;;;18.30
67758;BMP180;54562;47.620;18.786;2023-03-31T13:12:15;97427.20;;;18.10
67758;BMP180;54562;47.620;18.786;2023-03-31T13:15:26;97416.80;;;17.90
67758;BMP180;54562;47.620;18.786;2023-03-31T13:18:36;97411.60;;;17.64
67758;BMP180;54562;47.620;18.786;2023-03-31T13:22:00;97411.60;;;17.40
67758;BMP180;54562;47.620;18.786;2023-03-31T13:25:46;97416.40;;;17.20
67758;BMP180;54562;47.620;18.786;2023-03-31T13:29:25;97419.00;;;17.00
67758;BMP180;54562;47.620;18.786;2023-03-31T13:32:32;97415.00;;;16.90
67758;BMP180;54562;47.620;18.786;2023-03-31T13:35:49;97396.40;;;16.70
67758;BMP180;54562;47.620;18.786;2023-03-31T13:39:18;97385.60;;;16.60
67758;BMP180;54562;47.620;18.786;2023-03-31T13:42:56;97373.80;;;16.50
67758;BMP180;54562;47.620;18.786;2023-03-31T13:49:58;97371.40;;;16.20
67758;BMP180;54562;47.620;18.786;2023-03-31T13:53:38;97379.00;;;16.10
67758;BMP180;54562;47.620;18.786;2023-03-31T13:57:19;97366.60;;;16.10
67758;BMP180;54562;47.620;18.786;2023-03-31T14:00:53;97361.40;;;16.00
67758;BMP180;54562;47.620;18.786;2023-03-31T14:04:18;97358.40;;;16.00
67758;BMP180;54562;47.620;18.786;2023-03-31T14:07:39;97345.80;;;15.96
67758;BMP180;54562;47.620;18.786;2023-03-31T14:10:51;97340.80;;;15.90
67758;BMP180;54562;47.620;18.786;2023-03-31T14:14:10;97324.40;;;16.00
67758;BMP180;54562;47.620;18.786;2023-03-31T14:17:19;97307.80;;;16.00
67758;BMP180;54562;47.620;18.786;2023-03-31T14:20:44;97289.60;;;16.10
67758;BMP180;54562;47.620;18.786;2023-03-31T14:24:09;97287.40;;;16.10
67758;BMP180;54562;47.620;18.786;2023-03-31T14:27:46;97289.00;;;16.20
67758;BMP180;54562;47.620;18.786;2023-03-31T14:31:13;97280.60;;;16.30
67758;BMP180;54562;47.620;18.786;2023-03-31T14:34:43;97271.00;;;16.40
67758;BMP180;54562;47.620;18.786;2023-03-31T14:37:54;97259.20;;;16.46
67758;BMP180;54562;47.620;18.786;2023-03-31T14:41:04;97259.40;;;16.50
67758;BMP180;54562;47.620;18.786;2023-03-31T14:44:18;97253.80;;;16.60
67758;BMP180;54562;47.620;18.786;2023-03-31T14:47:28;97245.80;;;16.70
67758;BMP180;54562;47.620;18.786;2023-03-31T14:50:40;97245.00;;;17.00
67758;BMP180;54562;47.620;18.786;2023-03-31T14:53:49;97242.00;;;17.12
67758;BMP180;54562;47.620;18.786;2023-03-31T14:57:02;97242.80;;;17.20
67758;BMP180;54562;47.620;18.786;2023-03-31T15:00:19;97235.60;;;17.20
67758;BMP180;54562;47.620;18.786;2023-03-31T15:03:29;97248.20;;;17.20
67758;BMP180;54562;47.620;18.786;2023-03-31T15:06:38;97246.20;;;17.02
67758;BMP180;54562;47.620;18.786;2023-03-31T15:09:51;97245.60;;;16.90
67758;BMP180;54562;47.620;18.786;2023-03-31T15:12:59;97240.40;;;16.80
67758;BMP180;54562;47.620;18.786;2023-03-31T15:19:43;97204.80;;;16.60
67758;BMP180;54562;47.620;18.786;2023-03-31T15:22:51;97203.40;;;16.54
67758;BMP180;54562;47.620;18.786;2023-03-31T15:26:05;97201.40;;;16.50
67758;BMP180;54562;47.620;18.786;2023-03-31T15:29:21;97203.20;;;16.40
67758;BMP180;54562;47.620;18.786;2023-03-31T15:32:33;97193.20;;;16.30
67758;BMP180;54562;47.620;18.786;2023-03-31T15:35:42;97178.40;;;16.20
67758;BMP180;54562;47.620;18.786;2023-03-31T15:38:58;97174.00;;;16.20
67758;BMP180;54562;47.620;18.786;2023-03-31T15:42:09;97172.40;;;16.10
67758;BMP180;54562;47.620;18.786;2023-03-31T15:45:45;97173.20;;;16.00
67758;BMP180;54562;47.620;18.786;2023-03-31T15:48:55;97169.40;;;15.96
67758;BMP180;54562;47.620;18.786;2023-03-31T15:52:03;97167.20;;;15.90
67758;BMP180;54562;47.620;18.786;2023-03-31T15:55:28;97168.00;;;15.80
67758;BMP180;54562;47.620;18.786;2023-03-31T15:58:58;97158.40;;;15.70
67758;BMP180;54562;47.620;18.786;2023-03-31T16:02:07;97150.40;;;15.60
67758;BMP180;54562;47.620;18.786;2023-03-31T16:05:35;97160.20;;;15.60
67758;BMP180;54562;47.620;18.786;2023-03-31T16:09:10;97163.40;;;15.50
67758;BMP180;54562;47.620;18.786;2023-03-31T16:12:24;97174.80;;;15.40
67758;BMP180;54562;47.620;18.786;2023-03-31T16:15:36;97175.60;;;15.20
67758;BMP180;54562;47.620;18.786;2023-03-31T16:18:50;97170.00;;;15.10
67758;BMP180;54562;47.620;18.786;2023-03-31T16:22:01;97184.60;;;15.00
67758;BMP180;54562;47.620;18.786;2023-03-31T16:25:19;97196.80;;;14.90
67758;BMP180;54562;47.620;18.786;2023-03-31T16:28:31;97198.80;;;14.80
67758;BMP180;54562;47.620;18.786;2023-03-31T16:31:41;97201.80;;;14.70
67758;BMP180;54562;47.620;18.786;2023-03-31T16:34:58;97220.00;;;14.62
67758;BMP180;54562;47.620;18.786;2023-03-31T16:38:08;97225.80;;;14.60
67758;BMP180;54562;47.620;18.786;2023-03-31T16:41:17;97227.00;;;14.50
67758;BMP180;54562;47.620;18.786;2023-03-31T16:44:24;97225.20;;;14.40
67758;BMP180;54562;47.620;18.786;2023-03-31T16:47:33;97228.40;;;14.30
67758;BMP180;54562;47.620;18.786;2023-03-31T16:50:42;97217.20;;;14.30
67758;BMP180;54562;47.620;18.786;2023-03-31T16:53:50;97219.60;;;14.20
67758;BMP180;54562;47.620;18.786;2023-03-31T16:56:58;97217.20;;;14.10
67758;BMP180;54562;47.620;18.786;2023-03-31T17:00:10;97209.40;;;14.10
67758;BMP180;54562;47.620;18.786;2023-03-31T17:03:21;97212.00;;;14.00
67758;BMP180;54562;47.620;18.786;2023-03-31T17:06:30;97213.00;;;13.94
67758;BMP180;54562;47.620;18.786;2023-03-31T17:09:38;97205.40;;;13.90
67758;BMP180;54562;47.620;18.786;2023-03-31T17:12:46;97207.60;;;13.80
67758;BMP180;54562;47.620;18.786;2023-03-31T17:15:55;97214.20;;;13.70
67758;BMP180;54562;47.620;18.786;2023-03-31T17:19:21;97217.20;;;13.70
67758;BMP180;54562;47.620;18.786;2023-03-31T17:22:35;97213.40;;;13.60
67758;BMP180;54562;47.620;18.786;2023-03-31T17:25:51;97214.00;;;13.60
67758;BMP180;54562;47.620;18.786;2023-03-31T17:29:00;97206.80;;;13.50
67758;BMP180;54562;47.620;18.786;2023-03-31T17:32:08;97204.00;;;13.42
67758;BMP180;54562;47.620;18.786;2023-03-31T17:35:20;97204.00;;;13.40
67758;BMP180;54562;47.620;18.786;2023-03-31T17:38:28;97207.00;;;13.30
67758;BMP180;54562;47.620;18.786;2023-03-31T17:41:37;97213.00;;;13.20
67758;BMP180;54562;47.620;18.786;2023-03-31T17:44:45;97213.40;;;13.12
67758;BMP180;54562;47.620;18.786;2023-03-31T17:47:56;97210.20;;;13.10
67758;BMP180;54562;47.620;18.786;2023-03-31T17:51:08;97214.60;;;13.00
67758;BMP180;54562;47.620;18.786;2023-03-31T17:54:17;97216.40;;;13.00
67758;BMP180;54562;47.620;18.786;2023-03-31T17:57:25;97219.60;;;12.90
67758;BMP180;54562;47.620;18.786;2023-03-31T18:00:33;97221.20;;;12.90
67758;BMP180;54562;47.620;18.786;2023-03-31T18:03:43;97230.40;;;12.80
67758;BMP180;54562;47.620;18.786;2023-03-31T18:06:52;97235.00;;;12.80
67758;BMP180;54562;47.620;18.786;2023-03-31T18:10:01;97227.00;;;12.70
67758;BMP180;54562;47.620;18.786;2023-03-31T18:13:11;97226.40;;;12.70
67758;BMP180;54562;47.620;18.786;2023-03-31T18:16:20;97212.60;;;12.60
67758;BMP180;54562;47.620;18.786;2023-03-31T18:19:28;97232.00;;;12.50
67758;BMP180;54562;47.620;18.786;2023-03-31T18:22:38;97237.80;;;12.50
67758;BMP180;54562;47.620;18.786;2023-03-31T18:25:47;97253.20;;;12.40
67758;BMP180;54562;47.620;18.786;2023-03-31T18:28:55;97269.40;;;12.40
67758;BMP180;54562;47.620;18.786;2023-03-31T18:32:05;97270.20;;;12.30
67758;BMP180;54562;47.620;18.786;2023-03-31T18:35:19;97276.20;;;12.30
67758;BMP180;54562;47.620;18.786;2023-03-31T18:38:29;97281.40;;;12.20
67758;BMP180;54562;47.620;18.786;2023-03-31T18:41:45;97290.20;;;12.20
67758;BMP180;54562;47.620;18.786;2023-03-31T18:44:54;97288.80;;;12.20